Detall de PIREP

Printer-friendly versionPDF version

[2010/02/14 22:12:00]
Flight IATA:CT2200
Pilot Number:026
Company ICAO:CAT
Aircraft Type:DC85/A
PAX:136
Departing Airport: LFMP
Destination Airport: LFOH
Alternate Airport:LFPB
Online: VATSIM
Route:ORBIL/N025F100 G36 GAI/M300F340 UN859 LGL/N250F180 R111 CAN
Flight Level:FL300
No Slew and time accel
No pause
Crash detect
Detect pilot in Cockpit between each 30 and 45 minutes
22:12 Zero fuel Weight: 185727 Lbs, Fuel Weight: 33752 Lbs
22:12 VATSIM:LFMP 142200Z AUTO 32005KT 280V350 9999NDV NSC M00/M08 Q1011
22:12 VATSIM:LFOH 142200Z AUTO 21006KT 8000NDV SCT006 BKN011 BKN018 02/01 Q1013
22:13 VOICE CATALONIAN
22:20 Parking Brakes off
22:26 Take-off
22:26 Take off Weight: 218453 Lbs
22:26 Wind: 318º @ 005 Knots Heading: 327º
22:26 POS N42º 44´ 59´´ E002º 51´ 55´´
22:26 Gear Up: 176 Knots
22:26 Flaps:2 at 176 Knots
22:27 Flaps:1 at 166 Knots
22:27 Flaps:0 at 197 Knots

22:41 Wind:308º@006 Knots Heading: 338º Ground Speed: 352 Knots Altitude 9911 ft
22:56 Wind:059º@021 Knots Heading: 354º Ground Speed: 423 Knots Altitude 28635 ft
22:57 TOC
22:57 Fuel Weight: 24577 Lb
23:11 Wind:060º@002 Knots Heading: 005º Ground Speed: 457 Knots Altitude 29980 ft
23:15 TOD
23:15 Fuel Weight: 19838 Lb
23:26 Wind:253º@009 Knots Heading: 340º Ground Speed: 303 Knots Altitude 14297 ft
23:40 Flaps:1 at 182 Knots
23:40 Gear Down: 196 Knots
23:41 Wind:221º@005 Knots Heading: 223º Ground Speed: 192 Knots Altitude 2906 ft
23:42 Flaps:2 at 164 Knots
23:42 Flaps:3 at 165 Knots
23:43 Flaps:4 at 169 Knots
23:43 Flaps:5 at 163 Knots
23:44 TouchDown:Rate -121 ft/min Speed: 138 Knots
23:44 VATSIM:LFOH 142330Z AUTO 22005KT 4700NDV BR BKN002 OVC013 02/01 Q1012
23:44 Land
23:44 Wind:177º@005 Knots
23:44 Heading: 223º
23:44 Flight Duration: 01:18
23:44 La
nding Weight: 202784 Lbs
23:44 POS N49º 31´ 55´´ E000º 05´ 07´´
23:49 Parking brakes on
23:49 Block to Block Duration: 01:29
23:49 Final Fuel: 16543 Lbls
23:49 Spent Fuel: 17209 Lbls
23:49 Flight Length: 453 NM
23:49 TOD Land Length: 138 NM

Exportar CSV

Powered by Drupal - Modified by Danger4k